Time;durP1;ratioP1;P1;durP2;ratioP2;P2;SDS_P1;SDS_P2;PMS_P1;PMS_P2;Temp;Humidity;BMP_temperature;BMP_pressure;BME280_temperature;BME280_humidity;BME280_pressure;Samples;Min_cycle;Max_cycle;Signal;HPM_P1;HPM_P2
2022/08/03 00:01:06;;;;;;;4.47;2.40;;;;;;;18.68;100.00;101418.84;5026824;28;20033;-75
2022/08/03 00:03:32;;;;;;;4.53;2.40;;;;;;;18.65;100.00;101422.59;5024850;28;20026;-75
2022/08/03 00:05:57;;;;;;;5.38;2.42;;;;;;;18.63;100.00;101421.81;5026007;28;20025;-74
2022/08/03 00:08:23;;;;;;;3.33;2.40;;;;;;;18.62;100.00;101413.91;5026167;28;20039;-75
2022/08/03 00:10:49;;;;;;;3.17;2.22;;;;;;;18.61;100.00;101422.94;5027789;28;20057;-76
2022/08/03 00:13:14;;;;;;;5.10;2.38;;;;;;;18.58;100.00;101411.44;5013552;28;20049;-74
2022/08/03 00:15:41;;;;;;;3.88;2.17;;;;;;;18.57;100.00;101416.91;5025890;28;20091;-76
2022/08/03 00:18:07;;;;;;;3.10;2.30;;;;;;;18.58;100.00;101410.59;5024967;28;20068;-74
2022/08/03 00:20:34;;;;;;;5.35;2.30;;;;;;;18.58;100.00;101408.75;5026677;28;20480;-76
2022/08/03 00:22:59;;;;;;;7.10;2.05;;;;;;;18.59;100.00;101407.78;5025514;28;20033;-75
2022/08/03 00:25:25;;;;;;;2.78;2.00;;;;;;;18.59;100.00;101405.09;5023665;28;20028;-72
2022/08/03 00:27:51;;;;;;;3.55;1.88;;;;;;;18.59;100.00;101398.91;5025361;28;20036;-74
2022/08/03 00:30:17;;;;;;;2.22;1.80;;;;;;;18.59;100.00;101394.38;5029730;28;20041;-74
2022/08/03 00:32:42;;;;;;;5.22;2.10;;;;;;;18.59;100.00;101399.72;5025530;28;20509;-74
2022/08/03 00:35:08;;;;;;;3.42;2.03;;;;;;;18.59;100.00;101401.56;5029758;28;20044;-76
2022/08/03 00:37:34;;;;;;;3.30;2.17;;;;;;;18.58;100.00;101391.81;5028378;28;20068;-75
2022/08/03 00:39:59;;;;;;;2.17;1.80;;;;;;;18.58;100.00;101403.38;5027417;28;20380;-76
2022/08/03 00:42:25;;;;;;;3.60;1.83;;;;;;;18.57;100.00;101395.44;5025129;28;20029;-75
2022/08/03 00:44:51;;;;;;;3.13;1.70;;;;;;;18.58;100.00;101402.56;5011205;28;20029;-73
2022/08/03 00:47:16;;;;;;;6.22;2.15;;;;;;;18.56;100.00;101397.28;5027630;28;20033;-75
2022/08/03 00:49:42;;;;;;;2.85;1.92;;;;;;;18.55;100.00;101392.91;5023776;28;20024;-75
2022/08/03 00:52:09;;;;;;;4.35;1.88;;;;;;;18.55;100.00;101387.53;5025955;28;20038;-75
2022/08/03 00:54:37;;;;;;;3.78;1.98;;;;;;;18.55;100.00;101387.53;5027307;28;20034;-75
2022/08/03 00:57:03;;;;;;;4.97;1.52;;;;;;;18.55;100.00;101387.53;5024138;28;20193;-75
2022/08/03 00:59:29;;;;;;;4.78;2.20;;;;;;;18.55;100.00;101382.16;5024805;28;20041;-75
2022/08/03 01:01:55;;;;;;;6.43;1.98;;;;;;;18.55;100.00;101384.84;5026027;28;20052;-75
2022/08/03 01:04:21;;;;;;;2.15;1.95;;;;;;;18.56;100.00;101391.94;5024504;28;20430;-78
2022/08/03 01:07:00;;;;;;;6.20;2.10;;;;;;;18.58;100.00;101375.75;5007219;28;20119;-74
2022/08/03 01:09:28;;;;;;;3.00;1.88;;;;;;;18.57;100.00;101374.00;5007491;28;20117;-73
2022/08/03 01:12:03;;;;;;;4.60;2.05;;;;;;;18.58;100.00;101375.75;5028032;28;20408;-75
2022/08/03 01:14:37;;;;;;;3.95;2.20;;;;;;;18.57;100.00;101369.50;5013209;28;21629;-73
2022/08/03 01:17:19;;;;;;;6.07;1.88;;;;;;;18.58;100.00;101375.75;5027669;28;20162;-73
2022/08/03 01:19:49;;;;;;;5.88;2.30;;;;;;;18.58;100.00;101378.41;5025075;28;20040;-73
2022/08/03 01:22:34;;;;;;;3.70;1.95;;;;;;;18.57;100.00;101371.31;5023398;28;20044;-74
2022/08/03 01:25:35;;;;;;;3.38;2.10;;;;;;;18.54;100.00;101372.41;5024696;28;20399;-74
2022/08/03 01:28:22;;;;;;;3.45;1.90;;;;;;;18.50;100.00;101370.03;5024774;28;20198;-74
2022/08/03 01:30:48;;;;;;;4.53;1.88;;;;;;;18.45;100.00;101362.31;5011353;28;20037;-75
2022/08/03 01:33:27;;;;;;;4.70;2.05;;;;;;;18.41;100.00;101363.53;5022857;28;20040;-74
2022/08/03 01:35:58;;;;;;;3.17;2.10;;;;;;;18.36;100.00;101363.84;4979003;28;22197;-73
2022/08/03 01:38:27;;;;;;;3.78;1.88;;;;;;;18.32;100.00;101365.88;5025339;28;20063;-74
2022/08/03 01:40:55;;;;;;;4.80;1.92;;;;;;;18.29;100.00;101366.09;5026485;28;20594;-73
2022/08/03 01:43:26;;;;;;;4.43;2.10;;;;;;;18.24;100.00;101362.88;5026704;28;20029;-74
2022/08/03 01:45:54;;;;;;;4.67;2.03;;;;;;;18.19;100.00;101365.88;5026104;28;20030;-74
2022/08/03 01:48:20;;;;;;;5.65;2.15;;;;;;;18.15;100.00;101369.72;5042142;28;20105;-74
2022/08/03 01:50:45;;;;;;;2.40;1.70;;;;;;;18.11;100.00;101362.88;5027023;28;20028;-74
2022/08/03 01:53:13;;;;;;;1.92;1.60;;;;;;;18.09;100.00;101369.31;5038634;28;20033;-72
2022/08/03 01:55:43;;;;;;;4.13;2.03;;;;;;;18.04;100.00;101358.88;5024390;28;20034;-76
2022/08/03 01:58:10;;;;;;;2.85;1.65;;;;;;;18.01;100.00;101361.75;5021774;28;20661;-74
2022/08/03 02:00:36;;;;;;;4.10;2.15;;;;;;;18.00;100.00;101354.69;5025133;28;20060;-73
2022/08/03 02:03:05;;;;;;;2.70;1.92;;;;;;;17.99;100.00;101353.84;5024927;28;20032;-73
2022/08/03 02:05:31;;;;;;;6.18;2.33;;;;;;;17.99;100.00;101353.84;5042905;28;20146;-74
2022/08/03 02:07:57;;;;;;;7.07;2.28;;;;;;;17.99;100.00;101350.31;5026871;28;20095;-73
2022/08/03 02:10:24;;;;;;;3.05;1.83;;;;;;;18.00;100.00;101342.16;5010248;28;20454;-74
2022/08/03 02:12:51;;;;;;;6.78;2.25;;;;;;;18.00;100.00;101342.16;5026602;28;20073;-74
2022/08/03 02:15:17;;;;;;;3.60;2.20;;;;;;;18.01;100.00;101346.56;5026671;28;20520;-74
2022/08/03 02:17:44;;;;;;;2.67;2.08;;;;;;;17.99;100.00;101345.81;5014323;28;20569;-75
2022/08/03 02:20:11;;;;;;;3.80;2.00;;;;;;;17.97;100.00;101345.03;5025466;28;20048;-74
2022/08/03 02:22:41;;;;;;;4.28;1.90;;;;;;;17.95;100.00;101336.25;5031242;28;20030;-74
2022/08/03 02:25:09;;;;;;;3.05;2.15;;;;;;;17.92;100.00;101349.84;5025157;28;20184;-74
2022/08/03 02:27:36;;;;;;;3.85;2.40;;;;;;;17.90;100.00;101343.75;5026085;28;20625;-75
2022/08/03 02:30:04;;;;;;;4.03;2.30;;;;;;;17.86;100.00;101340.44;5027283;28;20111;-74
2022/08/03 02:32:33;;;;;;;3.50;1.80;;;;;;;17.84;100.00;101349.53;5025880;28;20563;-74
2022/08/03 02:34:59;;;;;;;4.47;1.90;;;;;;;17.81;100.00;101347.06;5025992;28;20037;-74
2022/08/03 02:37:30;;;;;;;6.38;1.92;;;;;;;17.78;100.00;101346.31;5027447;28;20040;-74
2022/08/03 02:40:04;;;;;;;4.50;1.80;;;;;;;17.74;100.00;101339.47;5016143;28;20045;-74
2022/08/03 02:42:34;;;;;;;3.90;1.73;;;;;;;17.73;100.00;101342.22;5029088;28;20037;-73
2022/08/03 02:45:02;;;;;;;4.40;2.28;;;;;;;17.71;100.00;101338.81;5027022;28;20112;-74
2022/08/03 02:47:28;;;;;;;4.45;2.10;;;;;;;17.70;100.00;101337.94;5008450;28;20472;-74
2022/08/03 02:49:57;;;;;;;2.65;1.77;;;;;;;17.69;100.00;101335.38;5025641;28;20032;-74
2022/08/03 02:52:26;;;;;;;2.95;2.00;;;;;;;17.68;100.00;101328.28;5028178;28;20068;-74
2022/08/03 02:54:55;;;;;;;3.38;1.80;;;;;;;17.66;100.00;101325.75;5014359;28;20073;-74
2022/08/03 02:57:21;;;;;;;3.25;1.73;;;;;;;17.65;100.00;101324.00;5027561;28;20520;-74
2022/08/03 02:59:47;;;;;;;3.15;1.60;;;;;;;17.64;100.00;101324.97;5024889;28;20028;-74
2022/08/03 03:02:15;;;;;;;2.63;1.70;;;;;;;17.62;100.00;101318.88;5026698;28;20024;-74
2022/08/03 03:04:42;;;;;;;2.35;1.80;;;;;;;17.62;100.00;101318.88;5026739;28;20025;-72
2022/08/03 03:07:07;;;;;;;2.47;1.80;;;;;;;17.62;100.00;101318.88;5027703;28;20033;-74
2022/08/03 03:09:33;;;;;;;4.00;2.30;;;;;;;17.60;100.00;101316.28;5028715;28;20072;-74
2022/08/03 03:11:59;;;;;;;4.97;1.90;;;;;;;17.61;100.00;101325.19;5027758;28;20029;-75
2022/08/03 03:14:25;;;;;;;5.28;2.10;;;;;;;17.58;100.00;101320.03;5026792;28;20069;-73
2022/08/03 03:16:51;;;;;;;7.70;2.00;;;;;;;17.57;100.00;101331.69;5027197;28;20518;-74
2022/08/03 03:19:18;;;;;;;4.60;1.92;;;;;;;17.56;100.00;101333.53;5031705;28;20033;-74
2022/08/03 03:21:44;;;;;;;6.65;2.00;;;;;;;17.56;100.00;101330.00;5038597;28;20656;-74
2022/08/03 03:24:09;;;;;;;3.65;1.70;;;;;;;17.55;100.00;101330.97;5026177;28;20033;-74
2022/08/03 03:26:35;;;;;;;3.63;1.90;;;;;;;17.54;100.00;101331.91;4996845;28;20461;-74
2022/08/03 03:29:01;;;;;;;1.90;1.63;;;;;;;17.53;100.00;101331.06;5026823;28;20044;-73
2022/08/03 03:31:27;;;;;;;2.85;1.70;;;;;;;17.52;100.00;101329.34;5024806;28;20030;-74
2022/08/03 03:33:54;;;;;;;4.90;1.77;;;;;;;17.50;100.00;101332.09;5027109;28;20040;-74
2022/08/03 03:36:19;;;;;;;4.25;1.73;;;;;;;17.49;100.00;101338.44;4981161;28;20095;-74
2022/08/03 03:38:45;;;;;;;4.70;2.08;;;;;;;17.48;100.00;101320.66;5027584;28;20525;-74
2022/08/03 03:41:10;;;;;;;3.22;1.90;;;;;;;17.48;100.00;101319.78;5026460;28;20468;-74
2022/08/03 03:43:36;;;;;;;3.78;2.00;;;;;;;17.46;100.00;101325.28;5007850;28;20068;-74
2022/08/03 03:46:01;;;;;;;2.75;1.92;;;;;;;17.46;100.00;101330.63;5025732;28;20037;-74
2022/08/03 03:48:27;;;;;;;1.88;1.55;;;;;;;17.43;100.00;101325.47;5024349;28;20035;-75
2022/08/03 03:50:53;;;;;;;2.85;1.75;;;;;;;17.42;100.00;101322.91;5025172;28;20506;-74
2022/08/03 03:53:19;;;;;;;3.58;2.03;;;;;;;17.40;100.00;101320.31;4995212;28;20094;-74
2022/08/03 03:55:44;;;;;;;4.78;1.92;;;;;;;17.39;100.00;101329.31;5013098;28;20037;-74
2022/08/03 03:58:10;;;;;;;4.75;2.30;;;;;;;17.37;100.00;101334.75;5008242;28;20021;-74
2022/08/03 04:00:36;;;;;;;4.00;2.00;;;;;;;17.36;100.00;101334.84;5024593;28;20101;-74
2022/08/03 04:03:01;;;;;;;3.33;1.70;;;;;;;17.34;100.00;101342.97;5025869;28;20135;-75
2022/08/03 04:11:21;;;;;;;4.07;2.08;;;;;;;17.30;100.00;101340.63;5013771;28;20035;-75
2022/08/03 04:13:55;;;;;;;5.78;1.90;;;;;;;17.29;100.00;101338.91;5026558;28;20369;-74
2022/08/03 04:16:26;;;;;;;4.97;2.10;;;;;;;17.29;100.00;101345.13;5014825;28;20037;-75
2022/08/03 04:19:02;;;;;;;3.88;2.08;;;;;;;17.28;100.00;101340.75;5007102;28;20036;-74
2022/08/03 04:21:29;;;;;;;3.35;1.67;;;;;;;17.28;100.00;101342.53;5026539;28;20037;-75
2022/08/03 04:23:58;;;;;;;6.60;1.80;;;;;;;17.27;100.00;101340.84;5024879;28;20041;-74
2022/08/03 04:26:26;;;;;;;2.50;1.75;;;;;;;17.27;100.00;101341.66;5026078;28;20024;-74
2022/08/03 04:28:52;;;;;;;3.90;1.80;;;;;;;17.27;100.00;101343.50;5024445;28;20041;-73
2022/08/03 04:31:21;;;;;;;3.88;2.05;;;;;;;17.29;100.00;101352.28;5009196;28;20036;-73
2022/08/03 04:33:47;;;;;;;5.70;1.92;;;;;;;17.28;100.00;101340.75;5025603;28;20039;-74
2022/08/03 04:36:15;;;;;;;6.25;2.35;;;;;;;17.30;100.00;101348.66;5024178;28;20037;-74
2022/08/03 04:39:03;;;;;;;2.40;1.58;;;;;;;17.34;100.00;101347.50;5027132;28;20647;-74
2022/08/03 04:41:30;;;;;;;2.80;1.88;;;;;;;17.35;100.00;101346.53;5023966;28;20041;-75
2022/08/03 04:43:58;;;;;;;3.15;1.73;;;;;;;17.39;100.00;101345.38;5024974;28;20382;-75
2022/08/03 04:46:37;;;;;;;3.88;1.83;;;;;;;17.44;100.00;101356.59;5024144;28;20037;-74
2022/08/03 04:49:04;;;;;;;3.83;1.67;;;;;;;17.47;100.00;101348.38;5021239;28;20144;-74
2022/08/03 04:51:30;;;;;;;2.35;1.90;;;;;;;17.50;100.00;101350.84;5028691;28;20634;-74
2022/08/03 04:53:56;;;;;;;3.85;1.70;;;;;;;17.54;100.00;101350.66;5024261;28;20040;-74
2022/08/03 04:56:21;;;;;;;4.63;2.20;;;;;;;17.59;100.00;101364.59;5026092;28;20037;-74
2022/08/03 04:58:47;;;;;;;4.72;2.20;;;;;;;17.62;100.00;101356.34;5026922;28;20077;-75
2022/08/03 05:01:13;;;;;;;3.10;1.50;;;;;;;17.65;100.00;101361.47;5024948;28;20032;-74
2022/08/03 05:03:39;;;;;;;4.10;2.20;;;;;;;17.68;100.00;101361.28;5023712;28;20100;-74
2022/08/03 05:06:05;;;;;;;5.55;2.40;;;;;;;17.71;100.00;101357.56;5025264;28;20421;-74
2022/08/03 05:08:30;;;;;;;4.82;2.00;;;;;;;17.73;100.00;101355.63;5024068;28;20037;-72
2022/08/03 05:10:56;;;;;;;5.97;2.40;;;;;;;17.76;100.00;101355.44;5026369;28;20460;-74
2022/08/03 05:13:21;;;;;;;5.97;1.83;;;;;;;17.78;100.00;101357.00;5028363;28;20041;-73
2022/08/03 05:15:48;;;;;;;3.88;1.92;;;;;;;17.83;100.00;101358.53;5030580;28;20497;-73
2022/08/03 05:18:13;;;;;;;4.07;2.20;;;;;;;17.88;100.00;101359.91;5016285;28;20036;-75
2022/08/03 05:20:39;;;;;;;7.03;2.22;;;;;;;17.93;100.00;101359.63;5011916;28;21450;-74
2022/08/03 05:23:04;;;;;;;6.13;2.20;;;;;;;17.99;100.00;101358.34;5029551;28;20041;-73
2022/08/03 05:25:30;;;;;;;3.35;1.95;;;;;;;18.04;100.00;101351.69;5011699;28;20037;-73
2022/08/03 05:27:55;;;;;;;5.25;2.83;;;;;;;18.11;100.00;101352.16;5029551;28;20648;-73
2022/08/03 05:30:21;;;;;;;3.25;2.20;;;;;;;18.17;100.00;101354.44;5025011;28;20116;-74
2022/08/03 05:32:46;;;;;;;4.53;2.25;;;;;;;18.24;100.00;101351.31;5018332;28;20039;-74
2022/08/03 05:35:12;;;;;;;6.20;2.28;;;;;;;18.31;100.00;101364.16;5027846;28;20068;-74
2022/08/03 05:37:37;;;;;;;6.40;2.05;;;;;;;18.39;100.00;101360.94;5029930;28;20144;-75
2022/08/03 05:40:04;;;;;;;7.05;2.42;;;;;;;18.50;100.00;101357.50;5035429;28;20116;-75
2022/08/03 05:42:29;;;;;;;4.90;1.95;;;;;;;18.59;100.00;101362.19;5013119;28;20487;-74
2022/08/03 05:44:55;;;;;;;4.20;1.90;;;;;;;18.68;100.00;101365.22;5030936;28;20037;-74
2022/08/03 05:47:21;;;;;;;6.35;2.03;;;;;;;18.77;100.00;101361.84;5027307;28;20040;-74
2022/08/03 05:49:46;;;;;;;5.22;2.28;;;;;;;18.87;100.00;101364.72;5027570;28;20095;-74
2022/08/03 05:52:12;;;;;;;3.35;1.77;;;;;;;18.99;100.00;101362.97;5026431;28;20040;-74
2022/08/03 05:54:37;;;;;;;5.05;2.70;;;;;;;19.11;100.00;101367.47;5012232;28;20044;-73
2022/08/03 05:57:03;;;;;;;6.35;2.85;;;;;;;19.23;100.00;101362.19;5027371;28;20029;-74
2022/08/03 05:59:29;;;;;;;3.60;2.00;;;;;;;19.31;100.00;101362.47;5027958;28;20480;-74
2022/08/03 06:01:57;;;;;;;4.68;1.70;;;;;;;19.42;100.00;101369.69;5028807;28;20033;-73
2022/08/03 06:04:26;;;;;;;5.40;2.15;;;;;;;19.49;100.00;101364.72;5029200;28;20042;-75
2022/08/03 06:06:51;;;;;;;3.88;1.83;;;;;;;19.59;100.00;101367.56;5030203;28;20025;-75
2022/08/03 06:09:17;;;;;;;4.57;2.10;;;;;;;19.69;100.00;101357.84;5028212;28;20032;-73
2022/08/03 06:11:42;;;;;;;3.28;1.85;;;;;;;19.80;100.00;101357.03;5027605;28;20047;-73
2022/08/03 06:14:08;;;;;;;5.45;1.90;;;;;;;19.90;100.00;101357.19;5026440;28;20814;-75
2022/08/03 06:16:34;;;;;;;5.93;2.10;;;;;;;19.99;100.00;101356.47;5028062;28;20377;-74
2022/08/03 06:19:00;;;;;;;3.28;2.05;;;;;;;20.11;100.00;101360.06;5028421;28;20036;-74
2022/08/03 06:21:26;;;;;;;3.67;1.90;;;;;;;20.27;100.00;101362.38;5020851;28;20029;-74
2022/08/03 06:23:51;;;;;;;4.30;1.88;;;;;;;20.43;100.00;101364.72;5025695;28;20032;-75
2022/08/03 06:26:17;;;;;;;5.18;2.25;;;;;;;20.62;100.00;101357.88;5023404;28;20037;-74
2022/08/03 06:28:44;;;;;;;5.00;2.00;;;;;;;20.74;100.00;101362.28;5027996;28;20064;-75
2022/08/03 06:31:09;;;;;;;3.72;1.77;;;;;;;20.81;100.00;101361.78;5026524;28;20032;-75
2022/08/03 06:33:35;;;;;;;3.97;2.05;;;;;;;20.85;100.00;101358.75;5025176;28;20036;-75
2022/08/03 06:36:00;;;;;;;4.57;1.83;;;;;;;20.96;100.00;101354.34;5028129;28;20033;-75
2022/08/03 06:38:26;;;;;;;3.78;1.50;;;;;;;21.10;100.00;101363.94;5025172;28;20034;-75
2022/08/03 06:40:51;;;;;;;4.18;1.85;;;;;;;21.23;100.00;101361.94;5024842;28;20543;-75
2022/08/03 06:43:17;;;;;;;4.03;1.88;;;;;;;21.35;100.00;101364.63;5023520;28;20033;-73
2022/08/03 06:45:42;;;;;;;7.40;1.83;;;;;;;21.52;100.00;101374.81;5022180;28;20384;-74
2022/08/03 06:48:09;;;;;;;4.45;1.83;;;;;;;21.69;100.00;101368.03;5023577;28;20037;-73
2022/08/03 06:50:37;;;;;;;3.08;2.13;;;;;;;21.89;100.00;101361.94;5028790;28;20388;-73
2022/08/03 06:53:03;;;;;;;6.05;1.88;;;;;;;22.10;100.00;101370.88;5016197;28;20067;-74
2022/08/03 06:55:28;;;;;;;5.78;2.10;;;;;;;22.32;100.00;101371.69;5041450;28;20033;-73
2022/08/03 06:57:54;;;;;;;5.85;1.70;;;;;;;22.45;100.00;101370.59;5025371;28;20442;-73
2022/08/03 07:00:20;;;;;;;4.80;1.85;;;;;;;22.43;100.00;101370.75;5024400;28;20079;-71
2022/08/03 07:02:45;;;;;;;5.00;1.63;;;;;;;22.45;100.00;101367.91;5025710;28;20115;-71
2022/08/03 07:05:12;;;;;;;3.72;1.70;;;;;;;22.43;100.00;101372.59;5025351;28;20042;-72
2022/08/03 07:07:38;;;;;;;3.25;1.90;;;;;;;22.45;100.00;101374.16;5024014;28;20282;-74
2022/08/03 07:10:05;;;;;;;4.20;2.03;;;;;;;22.57;100.00;101374.97;5025679;28;20029;-73
2022/08/03 07:12:32;;;;;;;5.45;1.75;;;;;;;22.74;100.00;101380.69;5024747;28;20361;-72
2022/08/03 07:14:59;;;;;;;2.63;1.65;;;;;;;22.71;100.00;101378.28;5026237;28;20056;-73
2022/08/03 07:17:24;;;;;;;3.95;2.00;;;;;;;22.67;100.00;101383.09;5007349;28;20044;-72
2022/08/03 07:19:50;;;;;;;5.63;2.25;;;;;;;22.67;100.00;101379.53;5024769;28;20415;-73
2022/08/03 07:22:16;;;;;;;5.10;2.08;;;;;;;22.59;100.00;101386.47;5007482;28;20029;-73
2022/08/03 07:24:41;;;;;;;6.38;2.53;;;;;;;22.61;100.00;101392.56;5025980;28;21472;-73
2022/08/03 07:27:08;;;;;;;5.57;2.33;;;;;;;22.70;100.00;101381.97;5024862;28;20123;-73
2022/08/03 07:29:34;;;;;;;6.10;2.80;;;;;;;22.91;100.00;101385.44;5025809;28;20037;-73
2022/08/03 07:32:00;;;;;;;5.72;2.95;;;;;;;23.16;100.00;101391.28;5024975;28;20028;-74
2022/08/03 07:34:26;;;;;;;3.95;2.90;;;;;;;23.29;100.00;101393.75;5007154;28;20083;-74
2022/08/03 07:36:51;;;;;;;4.40;2.63;;;;;;;23.23;100.00;101401.53;5026980;28;20038;-74
2022/08/03 07:39:17;;;;;;;5.25;3.00;;;;;;;23.14;100.00;101400.53;5026226;28;20059;-72
2022/08/03 07:41:43;;;;;;;5.28;2.70;;;;;;;23.11;100.00;101403.50;5026987;28;21202;-73
2022/08/03 07:44:08;;;;;;;5.82;2.90;;;;;;;23.08;100.00;101401.94;5025984;28;20076;-72
2022/08/03 07:46:34;;;;;;;4.70;2.85;;;;;;;23.05;100.00;101402.25;5023568;28;20118;-72
2022/08/03 07:48:59;;;;;;;5.63;2.97;;;;;;;22.97;100.00;101402.91;5026223;28;20104;-72
2022/08/03 07:51:24;;;;;;;7.88;3.40;;;;;;;22.86;100.00;101401.19;5024939;28;20167;-73
2022/08/03 07:53:50;;;;;;;6.97;3.00;;;;;;;22.75;100.00;101403.97;5025351;28;20388;-76
2022/08/03 07:56:16;;;;;;;5.45;3.10;;;;;;;22.65;100.00;101402.09;5024804;28;20112;-72
2022/08/03 07:58:41;;;;;;;6.25;3.13;;;;;;;22.64;100.00;101415.72;5022906;28;20076;-74
2022/08/03 08:01:07;;;;;;;4.90;3.30;;;;;;;22.60;100.00;101423.22;5025202;28;20116;-73
2022/08/03 08:03:33;;;;;;;9.50;3.90;;;;;;;22.57;100.00;101417.25;5025156;28;20033;-72
2022/08/03 08:06:00;;;;;;;7.45;3.90;;;;;;;22.66;100.00;101413.72;5025818;28;20672;-73
2022/08/03 08:08:26;;;;;;;9.63;4.35;;;;;;;22.78;100.00;101417.22;5025084;28;20651;-72
2022/08/03 08:10:51;;;;;;;7.63;4.00;;;;;;;22.82;100.00;101415.94;5025372;28;20457;-73
2022/08/03 08:13:17;;;;;;;6.30;3.80;;;;;;;22.78;100.00;101411.81;5024601;28;20504;-73
2022/08/03 08:15:42;;;;;;;7.85;4.57;;;;;;;22.71;100.00;101418.75;5024327;28;20067;-73
2022/08/03 08:18:08;;;;;;;6.00;4.38;;;;;;;22.81;100.00;101419.63;5026261;28;20054;-73
2022/08/03 08:20:37;;;;;;;7.00;4.93;;;;;;;23.07;100.00;101416.44;5025372;28;20398;-72
2022/08/03 08:23:05;;;;;;;6.50;4.78;;;;;;;23.45;100.00;101414.84;5026984;28;20036;-72
2022/08/03 08:25:31;;;;;;;9.07;5.00;;;;;;;23.77;100.00;101428.19;5025130;28;20619;-72
2022/08/03 08:28:00;;;;;;;7.13;4.57;;;;;;;24.01;100.00;101425.03;5026385;28;20454;-72
2022/08/03 08:30:26;;;;;;;8.95;4.90;;;;;;;24.21;100.00;101425.91;5025684;28;20037;-72
2022/08/03 08:32:51;;;;;;;8.00;4.88;;;;;;;24.44;100.00;101430.13;5024870;28;20029;-72
2022/08/03 08:43:13;;;;;;;7.80;5.10;;;;;;;24.22;98.07;101424.03;5021279;28;20061;-73
2022/08/03 08:45:40;;;;;;;10.52;5.60;;;;;;;24.26;98.52;101428.19;5016263;28;20496;-73
2022/08/03 08:48:06;;;;;;;10.25;6.45;;;;;;;24.37;98.36;101425.31;5023206;28;20029;-75
2022/08/03 08:50:32;;;;;;;9.18;5.30;;;;;;;24.65;98.50;101425.34;5024757;28;20520;-72
2022/08/03 08:53:02;;;;;;;10.02;5.70;;;;;;;24.81;96.63;101432.88;5022954;28;20044;-73
2022/08/03 08:55:27;;;;;;;8.07;5.32;;;;;;;24.87;95.90;101426.00;5025005;28;20029;-73
2022/08/03 08:58:04;;;;;;;9.27;6.00;;;;;;;24.83;94.65;101429.16;5023806;28;20037;-73
2022/08/03 09:00:30;;;;;;;9.45;5.85;;;;;;;24.73;95.35;101435.41;5013362;28;20033;-73
2022/08/03 09:02:56;;;;;;;11.45;6.05;;;;;;;24.64;95.83;101433.59;5014899;28;20031;-74
2022/08/03 09:05:22;;;;;;;9.90;5.75;;;;;;;24.54;95.15;101430.94;5022561;28;20047;-74
2022/08/03 09:07:48;;;;;;;10.65;6.45;;;;;;;24.45;95.41;101429.13;5012663;28;20026;-74
2022/08/03 09:10:18;;;;;;;10.85;6.63;;;;;;;24.23;95.01;101440.13;5000743;28;20563;-74
2022/08/03 09:12:46;;;;;;;9.63;6.97;;;;;;;24.12;95.34;101449.28;5023777;28;21090;-74
2022/08/03 09:15:23;;;;;;;10.98;6.57;;;;;;;24.07;95.32;101442.59;5012913;28;20033;-72
2022/08/03 09:17:51;;;;;;;10.40;7.28;;;;;;;24.07;96.52;101438.03;5023764;28;20144;-75
2022/08/03 09:20:21;;;;;;;11.68;7.28;;;;;;;24.03;96.09;101438.44;5020953;28;20053;-75
2022/08/03 09:22:57;;;;;;;10.20;7.32;;;;;;;23.99;95.42;101432.47;5021943;28;20029;-76
2022/08/03 09:25:35;;;;;;;8.65;7.07;;;;;;;23.98;95.90;101436.16;5012646;28;20380;-75
2022/08/03 09:28:15;;;;;;;8.38;7.03;;;;;;;23.92;94.84;101434.91;5020790;28;20044;-74
2022/08/03 09:30:57;;;;;;;10.98;7.05;;;;;;;23.87;95.41;101435.31;5021201;28;20049;-75
2022/08/03 09:33:23;;;;;;;10.90;7.55;;;;;;;23.86;95.98;101439.00;5019442;28;20037;-74
2022/08/03 09:35:48;;;;;;;11.85;7.47;;;;;;;23.92;96.46;101439.44;5020626;28;21527;-74
2022/08/03 09:38:16;;;;;;;11.60;8.27;;;;;;;23.93;96.50;101444.72;4987868;28;20052;-76
2022/08/03 09:40:43;;;;;;;10.75;7.65;;;;;;;23.83;95.54;101457.38;5011895;28;20044;-75
2022/08/03 09:43:10;;;;;;;14.73;7.82;;;;;;;23.76;95.84;101462.50;4994493;28;20041;-75
2022/08/03 09:45:37;;;;;;;11.93;8.15;;;;;;;23.75;96.17;101458.06;5013269;28;20048;-77
2022/08/03 09:48:29;;;;;;;20.05;7.50;;;;;;;23.70;94.65;101449.56;5019198;28;20026;-76
2022/08/03 09:50:57;;;;;;;10.27;6.80;;;;;;;23.74;96.56;101457.22;5019813;28;20471;-76
2022/08/03 09:53:23;;;;;;;11.23;7.03;;;;;;;23.85;96.42;101463.47;5020001;28;20047;-77
2022/08/03 09:55:50;;;;;;;11.50;6.95;;;;;;;23.93;96.59;101450.13;5022227;28;20052;-77
2022/08/03 09:58:16;;;;;;;15.40;7.45;;;;;;;23.96;95.94;101455.22;5019602;28;20481;-77
2022/08/03 10:01:02;;;;;;;12.48;7.28;;;;;;;24.01;95.54;101449.38;5019091;28;20036;-77
2022/08/03 10:03:31;;;;;;;12.18;7.80;;;;;;;24.04;95.07;101449.13;5021295;28;20033;-76
2022/08/03 10:05:57;;;;;;;12.52;7.90;;;;;;;24.09;95.12;101452.28;4996665;28;20029;-76
2022/08/03 10:08:23;;;;;;;12.02;7.38;;;;;;;24.16;95.13;101455.25;5033901;28;20026;-75
2022/08/03 10:10:52;;;;;;;10.15;7.78;;;;;;;24.22;94.63;101454.66;5019406;28;21436;-76
2022/08/03 10:13:19;;;;;;;12.75;7.20;;;;;;;24.27;94.31;101451.50;5019970;28;20119;-76
2022/08/03 10:15:45;;;;;;;13.63;7.45;;;;;;;24.27;94.01;101452.38;5018394;28;20439;-75
2022/08/03 10:18:11;;;;;;;11.32;6.97;;;;;;;24.32;94.25;101451.06;5021188;28;20037;-76
2022/08/03 10:20:42;;;;;;;11.18;7.47;;;;;;;24.46;93.80;101447.91;5022199;28;20096;-76
2022/08/03 10:23:08;;;;;;;10.13;6.68;;;;;;;24.55;93.82;101441.63;5021694;28;20033;-76
2022/08/03 10:25:36;;;;;;;13.38;7.63;;;;;;;24.67;93.36;101447.69;5018648;28;20106;-76
2022/08/03 10:28:03;;;;;;;11.80;6.82;;;;;;;24.71;92.68;101445.53;5017220;28;20033;-76
2022/08/03 10:30:31;;;;;;;9.18;6.38;;;;;;;24.72;92.41;101449.13;5026080;28;20043;-77
2022/08/03 10:33:14;;;;;;;8.05;6.30;;;;;;;24.69;92.05;101445.69;5021247;28;20025;-77
2022/08/03 10:35:40;;;;;;;8.88;6.60;;;;;;;24.80;92.63;101446.53;5027980;28;20279;-77
2022/08/03 10:38:11;;;;;;;11.70;6.55;;;;;;;24.96;92.02;101451.31;5020047;28;20056;-78
2022/08/03 10:40:37;;;;;;;12.73;6.63;;;;;;;25.15;92.22;101446.78;5020737;28;20305;-73
2022/08/03 10:43:07;;;;;;;11.35;6.68;;;;;;;25.27;91.53;101448.28;5018526;28;20651;-72
2022/08/03 10:45:35;;;;;;;13.52;6.50;;;;;;;25.35;90.97;101442.97;5015663;28;20033;-72
2022/08/03 10:48:01;;;;;;;11.63;6.50;;;;;;;25.36;90.05;101450.09;5007796;28;20094;-71
2022/08/03 10:50:27;;;;;;;13.77;7.05;;;;;;;25.35;89.78;101444.81;5001830;28;20037;-72
2022/08/03 10:52:57;;;;;;;8.40;6.40;;;;;;;25.25;89.10;101439.44;5001531;28;20037;-72
2022/08/03 10:58:39;;;;;;;10.05;6.82;;;;;;;25.07;88.92;101442.13;5017331;28;20120;-71
2022/08/03 11:01:09;;;;;;;9.60;6.03;;;;;;;25.02;90.39;101439.03;5008716;28;20458;-72
2022/08/03 11:04:14;;;;;;;10.40;6.13;;;;;;;25.08;89.16;101433.88;5019093;28;20029;-72
2022/08/03 11:06:40;;;;;;;9.48;6.00;;;;;;;25.16;90.66;101449.34;4992255;28;20034;-71
2022/08/03 11:09:08;;;;;;;11.73;6.88;;;;;;;25.22;89.85;101440.59;5017925;28;20048;-71
2022/08/03 11:11:35;;;;;;;10.63;6.10;;;;;;;25.33;89.94;101434.13;5001922;28;20040;-72
2022/08/03 11:14:07;;;;;;;9.60;6.30;;;;;;;25.38;89.21;101435.53;5018499;28;20060;-72
2022/08/03 11:16:35;;;;;;;11.07;6.20;;;;;;;25.38;89.00;101432.81;5019262;28;20037;-74
2022/08/03 11:19:23;;;;;;;11.07;7.22;;;;;;;25.30;87.92;101434.44;5014823;28;20491;-76
2022/08/03 11:21:51;;;;;;;9.55;6.60;;;;;;;25.12;88.52;101430.84;5017754;28;20407;-74
2022/08/03 11:24:35;;;;;;;9.02;6.25;;;;;;;25.04;87.25;101437.88;5018112;28;20029;-74
2022/08/03 11:27:15;;;;;;;8.77;6.38;;;;;;;25.10;89.02;101430.97;5009985;28;20045;-74
2022/08/03 11:29:59;;;;;;;12.30;6.43;;;;;;;25.21;88.28;101432.63;5017910;28;20021;-74
2022/08/03 11:32:36;;;;;;;10.38;6.18;;;;;;;25.25;87.56;101434.03;5018759;28;20044;-74
2022/08/03 11:35:21;;;;;;;16.33;6.78;;;;;;;25.28;87.51;101438.31;5019383;28;20060;-74
2022/08/03 11:37:53;;;;;;;13.30;6.57;;;;;;;25.32;87.54;101439.69;5017110;28;21393;-74